Terminal Aerodrome Forecast
Issued by NWS Twin Cities, MN

Current Version | Previous Version | Text Only | Print | Product List | Glossary On
Versions: 1 2 3 4 5 6 7 8 9 10 11 12 13 14 15 16 17 18 19 20 21 22 23 24 25 26 27 28 29 30 31
000
FTUS43 KMPX 200649 AAA
TAFMSP
TAF AMD
KMSP 200649Z 2007/2112 13004KT 2SM -DZ BR BKN007
     FM201000 12004KT 1SM BR OVC005
     FM201600 11004KT 3SM BR OVC005
     FM210600 12005KT 4SM -RA BR OVC005=

USA.gov is the U.S. government's official web portal to all federal, state and local government web resources and services.